Dupage Airport
KDPA : now visible

Airfield :











YOU CAN JOIN US ON...

 
LOGIN :

Register | Disclaimer

   EN    FR    IT 

 









Legend :    VFR   Marginal VFR   IFR   Intensive IFR   Very Intensive IFR
Visi :
Ceiling :
>= 8 km
>= 3000ft
5 to 8 km
1000 to 3000 ft
1500m to 5 km
500 to 1000 ft
800 to 1500m
200 to 500 ft
< 800m
< 200 ft
Symbols :   Thunderstorms  Fog  Heavy snow  Heavy precipitations  Wind > 20 kt







- Airport Elevation : 759 ft


KDPA - Dupage

CURRENT METAR :
  • 181852Z 16018G28KT 10SM CLR 27/22 A2982 RMK AO2 PK WND 18029/1839 SLP093 T02720217

EXPIRED METARs :
  • 181752Z 17016G22KT 10SM FEW110 26/22 A2988 RMK AO2 RAE11 SLP112 P0001 60160 T02610222 10267 20228 58017
  • 181652Z 12016G24KT 3SM RA BR FEW009 BKN070 OVC090 23/22 A2988 RMK AO2 LTG DSNT NE-SE RAE1555B11 TSB35E50 PRESFR SLP112 P0031 T02330217
  • 181641Z 11014G19KT 4SM -TSRA BR SCT009 BKN035 OVC090 23/22 A2991 RMK AO2 LTG DSNT SE-W RAE1555B11 TSB35 PRESFR P0028 T02330217

TAF KDPA
Valid from the 18 at 18:00 until the 19 at 18:00 UTC


181736Z 1818/1918 12013G21KT P6SM BKN050 BKN100
FM181900 16011G18KT P6SM BKN060
FM182000 18015G22KT P6SM SCT060 SCT150
FM190200 22008KT P6SM SCT250
FM191600 23012G19KT P6SM SCT250
KZAU FIR / North America



MET'MAP, your aeronautical weather chart ! - Copyright ORBIFLY December 2007 - Disclaimer

ORBIFLY MET'MAP TEAM :

Programming & Development : Alexandra Zaïnal
Concept & Development : Baudouin d'Aumeries
Co-Development & Prog : Marc-Olivier Méhu
Technical & hardware support : Manuel Goepfert

Contact : metmap@orbifly.com




SOURCES & CREDITS :

   NOAA       Earth
Advisory